createdAt,value
2019-03-28T00:01:48.536Z,9.63
2019-03-28T00:04:38.835Z,9.58
2019-03-28T00:07:26.742Z,9.53
2019-03-28T00:10:13.840Z,9.48
2019-03-28T00:13:00.672Z,10.17
2019-03-28T00:18:57.390Z,9.58
2019-03-28T00:21:42.301Z,10.27
2019-03-28T00:24:29.429Z,10.46
2019-03-28T00:27:17.653Z,9.80
2019-03-28T00:30:08.052Z,9.65
2019-03-28T00:32:54.847Z,9.57
2019-03-28T00:35:41.976Z,9.53
2019-03-28T00:38:30.100Z,9.46
2019-03-28T00:41:16.935Z,9.38
2019-03-28T00:44:04.028Z,9.34
2019-03-28T00:46:54.627Z,9.31
2019-03-28T00:49:42.273Z,9.26
2019-03-28T00:52:29.250Z,9.23
2019-03-28T00:55:16.086Z,9.17
2019-03-28T00:58:02.809Z,9.13
2019-03-28T01:00:50.443Z,9.09
2019-03-28T01:03:37.251Z,9.06
2019-03-28T01:06:23.910Z,9.05
2019-03-28T01:09:10.724Z,9.05
2019-03-28T01:11:57.812Z,9.02
2019-03-28T01:14:45.693Z,8.99
2019-03-28T01:17:33.220Z,8.98
2019-03-28T01:20:20.766Z,8.96
2019-03-28T01:23:08.247Z,8.97
2019-03-28T01:25:55.083Z,8.96
2019-03-28T01:28:41.895Z,8.94
2019-03-28T01:31:30.155Z,8.90
2019-03-28T01:34:17.355Z,8.92
2019-03-28T01:37:05.304Z,8.93
2019-03-28T01:42:58.691Z,9.16
2019-03-28T01:48:52.432Z,9.02
2019-03-28T01:51:40.270Z,9.00
2019-03-28T01:54:27.200Z,8.97
2019-03-28T01:57:14.580Z,8.95
2019-03-28T02:00:03.184Z,8.90
2019-03-28T02:05:57.746Z,8.88
2019-03-28T02:09:17.950Z,8.87
2019-03-28T02:12:05.285Z,9.54
2019-03-28T02:14:52.479Z,9.08
2019-03-28T02:17:39.285Z,8.97
2019-03-28T02:20:26.580Z,8.92
2019-03-28T02:23:17.052Z,8.90
2019-03-28T02:26:04.399Z,8.90
2019-03-28T02:28:51.515Z,8.88
2019-03-28T02:31:42.952Z,9.51
2019-03-28T02:34:29.790Z,9.06
2019-03-28T02:37:16.677Z,8.95
2019-03-28T02:40:04.697Z,8.88
2019-03-28T02:42:53.520Z,8.88
2019-03-28T02:45:41.279Z,8.87
2019-03-28T02:48:28.576Z,8.87
2019-03-28T02:51:15.735Z,8.86
2019-03-28T02:54:02.778Z,8.85
2019-03-28T02:56:50.358Z,9.53
2019-03-28T02:59:38.315Z,9.72
2019-03-28T03:02:25.025Z,9.22
2019-03-28T03:05:12.936Z,9.07
2019-03-28T03:11:06.223Z,9.71
2019-03-28T03:13:53.665Z,9.21
2019-03-28T03:16:40.464Z,9.08
2019-03-28T03:22:42.509Z,9.77
2019-03-28T03:25:30.348Z,9.92
2019-03-28T03:28:17.451Z,9.35
2019-03-28T03:31:04.367Z,9.19
2019-03-28T03:33:51.709Z,9.07
2019-03-28T03:36:38.602Z,9.00
2019-03-28T03:39:25.887Z,8.92
2019-03-28T03:42:12.654Z,8.86
2019-03-28T03:45:00.614Z,8.81
2019-03-28T03:47:48.528Z,8.80
2019-03-28T03:50:35.731Z,8.76
2019-03-28T03:56:39.944Z,8.74
2019-03-28T03:59:26.755Z,8.73
2019-03-28T04:02:14.816Z,8.71
2019-03-28T04:08:22.342Z,8.94
2019-03-28T04:11:10.020Z,8.85
2019-03-28T04:13:57.442Z,8.82
2019-03-28T04:16:44.617Z,8.83
2019-03-28T04:19:32.067Z,8.82
2019-03-28T04:35:28.171Z,10.09
2019-03-28T04:48:07.664Z,9.17
2019-03-28T04:54:01.361Z,8.97
2019-03-28T04:56:48.306Z,8.94
2019-03-28T04:59:36.226Z,9.62
2019-03-28T05:02:23.048Z,9.13
2019-03-28T05:05:10.410Z,9.73
2019-03-28T05:07:58.058Z,9.19
2019-03-28T05:10:44.952Z,9.78
2019-03-28T05:13:41.618Z,9.94
2019-03-28T05:16:28.619Z,9.26
2019-03-28T05:22:22.427Z,9.24
2019-03-28T05:25:09.226Z,9.10
2019-03-28T05:27:56.222Z,9.04
2019-03-28T05:30:43.852Z,9.72
2019-03-28T05:36:36.790Z,9.06
2019-03-28T05:39:23.930Z,9.01
2019-03-28T05:42:10.977Z,8.98
2019-03-28T05:44:58.280Z,8.97
2019-03-28T05:47:45.513Z,8.96
2019-03-28T05:56:44.370Z,8.97
2019-03-28T05:59:31.158Z,9.00
2019-03-28T06:02:32.160Z,9.01
2019-03-28T06:05:18.842Z,9.02
2019-03-28T06:08:06.804Z,9.06
2019-03-28T06:10:54.102Z,9.07
2019-03-28T06:19:52.542Z,9.20
2019-03-28T06:22:39.916Z,9.24
2019-03-28T06:40:58.651Z,9.51
2019-03-28T06:43:45.365Z,9.48
2019-03-28T06:46:32.270Z,10.24
2019-03-28T06:49:19.283Z,10.48
2019-03-28T06:52:07.726Z,9.89
2019-03-28T06:54:56.420Z,9.77
2019-03-28T07:07:04.434Z,10.67
2019-03-28T07:16:05.241Z,9.74
2019-03-28T07:18:53.405Z,9.72
2019-03-28T07:24:47.604Z,9.75
2019-03-28T07:27:34.715Z,9.78
2019-03-28T07:30:21.864Z,9.86
2019-03-28T07:33:09.077Z,9.89
2019-03-28T07:35:56.349Z,9.96
2019-03-28T07:51:07.583Z,10.17
2019-03-28T08:00:12.756Z,10.44
2019-03-28T08:02:59.452Z,10.53
2019-03-28T08:05:46.365Z,10.58
2019-03-28T08:08:38.633Z,11.39
2019-03-28T08:11:20.746Z,11.66
2019-03-28T08:14:08.303Z,11.00
2019-03-28T08:16:56.562Z,10.92
2019-03-28T08:19:43.680Z,10.95
2019-03-28T08:22:30.882Z,10.97
2019-03-28T08:28:24.120Z,11.08
2019-03-28T08:31:10.875Z,12.06
2019-03-28T08:34:12.422Z,11.54
2019-03-28T08:58:50.392Z,12.00
2019-03-28T09:01:37.913Z,11.90
2019-03-28T09:04:24.938Z,11.83
2019-03-28T09:07:12.113Z,11.82
2019-03-28T09:16:12.269Z,12.65
2019-03-28T09:18:59.544Z,12.81
2019-03-28T09:28:03.320Z,11.95
2019-03-28T09:30:50.506Z,11.93
2019-03-28T09:36:53.636Z,12.17
2019-03-28T09:39:40.692Z,12.29
2019-03-28T09:42:27.853Z,12.32
2019-03-28T09:45:14.943Z,12.40
2019-03-28T09:48:01.884Z,12.42
2019-03-28T09:50:48.486Z,12.47
2019-03-28T09:53:36.420Z,12.50
2019-03-28T09:56:23.643Z,12.66
2019-03-28T09:59:10.690Z,12.80
2019-03-28T10:05:09.717Z,13.48
2019-03-28T10:07:56.697Z,14.69
2019-03-28T10:10:44.102Z,14.00
2019-03-28T10:16:40.232Z,13.97
2019-03-28T10:19:24.791Z,14.01
2019-03-28T10:22:12.115Z,14.09
2019-03-28T10:28:06.190Z,14.18
2019-03-28T10:30:53.707Z,14.23
2019-03-28T10:33:40.497Z,14.33
2019-03-28T10:36:28.007Z,14.55
2019-03-28T10:39:14.898Z,14.78
2019-03-28T10:42:02.250Z,14.95
2019-03-28T10:47:55.362Z,15.03
2019-03-28T10:50:45.619Z,15.03
2019-03-28T10:53:30.274Z,15.22
2019-03-28T10:56:21.886Z,15.30
2019-03-28T10:59:03.449Z,16.70
2019-03-28T11:01:51.185Z,15.78
2019-03-28T11:04:37.558Z,15.58
2019-03-28T11:07:25.137Z,15.31
2019-03-28T11:10:11.905Z,16.50
2019-03-28T11:12:59.112Z,15.52
2019-03-28T11:15:46.335Z,15.21
2019-03-28T11:18:33.094Z,15.14
2019-03-28T11:21:20.078Z,15.13
2019-03-28T11:24:07.770Z,15.11
2019-03-28T11:26:54.891Z,15.20
2019-03-28T11:29:41.958Z,15.24
2019-03-28T11:32:28.747Z,15.24
2019-03-28T11:35:16.289Z,15.11
2019-03-28T11:38:03.678Z,16.34
2019-03-28T11:40:50.810Z,15.51
2019-03-28T11:43:39.207Z,15.29
2019-03-28T11:49:34.586Z,15.23
2019-03-28T11:52:21.693Z,15.24
2019-03-28T11:55:08.627Z,15.20
2019-03-28T11:57:56.617Z,15.32
2019-03-28T12:00:42.955Z,15.35
2019-03-28T12:03:29.736Z,15.36
2019-03-28T12:06:17.202Z,16.46
2019-03-28T12:09:05.222Z,15.51
2019-03-28T12:11:53.051Z,15.44
2019-03-28T12:14:38.860Z,16.58
2019-03-28T12:17:25.756Z,15.78
2019-03-28T12:20:13.213Z,15.62
2019-03-28T12:23:00.710Z,15.44
2019-03-28T12:25:47.624Z,15.24
2019-03-28T12:28:34.817Z,15.16
2019-03-28T12:31:21.957Z,15.09
2019-03-28T12:34:09.102Z,15.01
2019-03-28T12:36:56.485Z,14.86
2019-03-28T12:39:43.188Z,14.83
2019-03-28T12:42:31.225Z,14.87
2019-03-28T12:45:18.754Z,14.86
2019-03-28T12:48:05.691Z,14.90
2019-03-28T12:50:58.727Z,15.01
2019-03-28T12:53:39.415Z,16.30
2019-03-28T12:56:26.506Z,15.66
2019-03-28T12:59:13.241Z,15.55
2019-03-28T13:02:00.465Z,15.50
2019-03-28T13:04:48.688Z,15.38
2019-03-28T13:07:36.640Z,15.37
2019-03-28T13:10:23.752Z,15.48
2019-03-28T13:13:10.467Z,15.53
2019-03-28T13:15:57.227Z,15.47
2019-03-28T13:18:46.441Z,15.47
2019-03-28T13:21:33.080Z,16.49
2019-03-28T13:24:20.577Z,15.42
2019-03-28T13:30:14.800Z,15.22
2019-03-28T13:33:01.909Z,15.23
2019-03-28T13:35:49.340Z,15.34
2019-03-28T13:38:36.435Z,15.30
2019-03-28T13:41:24.240Z,15.32
2019-03-28T13:44:12.364Z,16.54
2019-03-28T13:46:59.293Z,16.72
2019-03-28T13:49:46.670Z,15.71
2019-03-28T13:52:34.156Z,15.40
2019-03-28T13:55:21.479Z,15.15
2019-03-28T13:58:08.396Z,16.31
2019-03-28T14:04:20.933Z,17.18
2019-03-28T14:07:07.935Z,17.37
2019-03-28T14:09:54.711Z,16.30
2019-03-28T14:12:41.554Z,17.32
2019-03-28T14:15:28.921Z,16.12
2019-03-28T14:18:16.984Z,15.88
2019-03-28T14:21:04.101Z,15.76
2019-03-28T14:23:51.291Z,16.70
2019-03-28T14:26:53.408Z,15.49
2019-03-28T14:29:40.614Z,15.23
2019-03-28T14:32:28.632Z,15.19
2019-03-28T14:35:15.481Z,14.94
2019-03-28T14:38:02.792Z,14.80
2019-03-28T14:40:50.087Z,14.62
2019-03-28T14:43:37.010Z,14.45
2019-03-28T14:46:24.501Z,14.31
2019-03-28T14:49:11.774Z,14.12
2019-03-28T14:51:58.882Z,14.07
2019-03-28T14:54:45.688Z,13.94
2019-03-28T14:57:32.893Z,13.92
2019-03-28T15:00:24.000Z,13.99
2019-03-28T15:03:24.555Z,13.87
2019-03-28T15:09:05.513Z,13.87
2019-03-28T15:11:52.266Z,13.89
2019-03-28T15:14:39.295Z,13.95
2019-03-28T15:17:26.360Z,14.10
2019-03-28T15:20:13.655Z,14.15
2019-03-28T15:23:00.304Z,14.08
2019-03-28T15:25:47.614Z,13.90
2019-03-28T15:28:34.597Z,13.83
2019-03-28T15:31:22.770Z,13.66
2019-03-28T15:34:09.992Z,13.53
2019-03-28T15:43:10.656Z,13.94
2019-03-28T15:45:59.566Z,13.90
2019-03-28T15:48:46.908Z,13.88
2019-03-28T15:51:33.972Z,13.81
2019-03-28T15:54:21.370Z,13.71
2019-03-28T15:57:08.982Z,13.69
2019-03-28T15:59:55.888Z,13.59
2019-03-28T16:02:43.114Z,14.38
2019-03-28T16:05:30.555Z,13.52
2019-03-28T16:08:17.766Z,13.23
2019-03-28T16:11:04.583Z,13.06
2019-03-28T16:13:51.798Z,12.92
2019-03-28T16:16:38.710Z,12.90
2019-03-28T16:19:25.637Z,13.74
2019-03-28T16:22:15.537Z,13.11
2019-03-28T16:24:59.921Z,12.94
2019-03-28T16:27:46.681Z,12.88
2019-03-28T16:30:37.122Z,12.81
2019-03-28T16:33:24.775Z,13.66
2019-03-28T16:36:12.123Z,13.06
2019-03-28T16:38:59.729Z,12.95
2019-03-28T16:41:46.775Z,12.95
2019-03-28T16:44:41.778Z,12.90
2019-03-28T16:47:28.506Z,12.89
2019-03-28T16:50:15.291Z,12.88
2019-03-28T16:53:02.687Z,12.84
2019-03-28T16:58:55.778Z,12.76
2019-03-28T17:01:43.199Z,12.75
2019-03-28T17:04:30.211Z,12.64
2019-03-28T17:07:17.735Z,12.51
2019-03-28T17:10:08.132Z,12.40
2019-03-28T17:16:02.603Z,12.11
2019-03-28T17:18:49.289Z,11.99
2019-03-28T17:21:36.839Z,12.72
2019-03-28T17:24:23.684Z,12.09
2019-03-28T17:27:10.481Z,11.95
2019-03-28T17:29:57.397Z,11.91
2019-03-28T17:32:44.391Z,12.71
2019-03-28T17:35:30.995Z,12.11
2019-03-28T17:38:17.644Z,12.80
2019-03-28T17:41:06.666Z,12.18
2019-03-28T17:43:52.374Z,11.97
2019-03-28T17:46:39.179Z,11.84
2019-03-28T17:49:26.604Z,12.60
2019-03-28T17:52:13.545Z,12.81
2019-03-28T17:55:01.352Z,12.20
2019-03-28T17:57:49.068Z,12.08
2019-03-28T18:00:35.913Z,11.92
2019-03-28T18:03:31.046Z,11.76
2019-03-28T18:06:09.920Z,11.63
2019-03-28T18:08:56.884Z,11.54
2019-03-28T18:11:44.950Z,11.51
2019-03-28T18:14:31.567Z,11.45
2019-03-28T18:17:18.578Z,12.17
2019-03-28T18:20:05.723Z,12.32
2019-03-28T18:22:52.752Z,11.66
2019-03-28T18:28:47.098Z,11.63
2019-03-28T18:31:49.438Z,11.49
2019-03-28T18:34:22.466Z,11.42
2019-03-28T18:37:09.511Z,11.38
2019-03-28T18:39:56.710Z,11.34
2019-03-28T18:42:44.011Z,11.33
2019-03-28T18:45:33.892Z,11.31
2019-03-28T18:48:29.392Z,12.02
2019-03-28T18:51:06.501Z,11.56
2019-03-28T18:53:53.329Z,11.46
2019-03-28T18:56:49.868Z,11.44
2019-03-28T18:59:36.794Z,11.42
2019-03-28T19:02:23.994Z,11.40
2019-03-28T19:11:41.053Z,11.47
2019-03-28T19:14:34.864Z,11.44
2019-03-28T19:17:22.814Z,11.40
2019-03-28T19:20:12.732Z,11.37
2019-03-28T19:22:58.465Z,11.33
2019-03-28T19:28:56.775Z,11.29
2019-03-28T19:31:44.189Z,11.30
2019-03-28T19:34:31.054Z,11.30
2019-03-28T19:37:18.221Z,12.02
2019-03-28T19:40:08.196Z,11.54
2019-03-28T19:42:56.137Z,12.21
2019-03-28T19:45:43.658Z,11.68
2019-03-28T19:48:30.464Z,11.57
2019-03-28T19:51:20.127Z,11.51
2019-03-28T19:54:07.977Z,11.44
2019-03-28T19:56:57.241Z,11.40
2019-03-28T19:59:42.621Z,11.39
2019-03-28T20:02:30.264Z,11.38
2019-03-28T20:05:17.938Z,11.37
2019-03-28T20:08:15.398Z,11.36
2019-03-28T20:10:51.916Z,11.34
2019-03-28T20:13:39.660Z,11.33
2019-03-28T20:16:27.477Z,11.33
2019-03-28T20:19:17.725Z,11.32
2019-03-28T20:22:02.702Z,11.32
2019-03-28T20:24:49.780Z,11.32
2019-03-28T20:27:36.967Z,11.31
2019-03-28T20:30:23.887Z,12.07
2019-03-28T20:33:11.721Z,11.55
2019-03-28T20:36:18.898Z,11.45
2019-03-28T20:41:50.850Z,11.34
2019-03-28T20:48:56.679Z,11.62
2019-03-28T20:51:43.818Z,12.30
2019-03-28T20:54:30.834Z,11.74
2019-03-28T20:57:17.641Z,11.63
2019-03-28T21:00:08.643Z,11.56
2019-03-28T21:02:54.843Z,11.49
2019-03-28T21:08:47.807Z,11.42
2019-03-28T21:14:44.259Z,12.37
2019-03-28T21:17:32.272Z,11.76
2019-03-28T21:20:18.049Z,11.59
2019-03-28T21:23:05.784Z,11.49
2019-03-28T21:25:53.024Z,11.43
2019-03-28T21:28:56.029Z,11.38
2019-03-28T21:31:49.670Z,11.33
2019-03-28T21:34:29.814Z,11.30
2019-03-28T21:40:22.938Z,11.46
2019-03-28T21:43:09.813Z,11.37
2019-03-28T21:45:57.540Z,11.31
2019-03-28T21:51:50.220Z,12.06
2019-03-28T21:54:38.964Z,12.24
2019-03-28T21:57:25.642Z,11.60
2019-03-28T22:00:12.882Z,11.44
2019-03-28T22:02:59.574Z,11.32
2019-03-28T22:05:46.815Z,11.25
2019-03-28T22:08:33.499Z,11.99
2019-03-28T22:11:23.418Z,11.43
2019-03-28T22:14:10.211Z,11.30
2019-03-28T22:16:57.303Z,11.22
2019-03-28T22:19:44.845Z,11.17
2019-03-28T22:22:32.660Z,11.13
2019-03-28T22:25:19.399Z,11.08
2019-03-28T22:31:19.700Z,11.00
2019-03-28T22:34:07.142Z,10.95
2019-03-28T22:36:57.444Z,10.92
2019-03-28T22:39:40.765Z,11.71
2019-03-28T22:42:27.894Z,11.18
2019-03-28T22:45:15.777Z,11.07
2019-03-28T22:48:10.650Z,11.80
2019-03-28T22:50:50.358Z,11.22
2019-03-28T22:53:37.488Z,11.88
2019-03-28T22:56:24.822Z,12.06
2019-03-28T22:59:11.508Z,11.44
2019-03-28T23:01:58.215Z,11.29
2019-03-28T23:04:46.156Z,11.20
2019-03-28T23:10:40.441Z,11.08
2019-03-28T23:13:27.487Z,11.84
2019-03-28T23:16:14.070Z,11.30
2019-03-28T23:19:00.790Z,11.97
2019-03-28T23:21:47.437Z,11.38
2019-03-28T23:24:34.496Z,11.25
2019-03-28T23:30:28.639Z,11.08
2019-03-28T23:33:14.683Z,11.03
2019-03-28T23:36:01.924Z,10.99
2019-03-28T23:38:50.041Z,10.95
2019-03-28T23:41:37.368Z,10.91
2019-03-28T23:44:24.456Z,10.90
2019-03-28T23:47:11.299Z,10.89
2019-03-28T23:49:58.509Z,11.68
2019-03-28T23:52:46.578Z,11.15
2019-03-28T23:55:33.628Z,11.05
2019-03-28T23:58:21.042Z,10.99
